Portada
METAR-TAF:

METAR-TAF

Aeroports :

Johor Bahru, Malàisia

latitud: 01-38N, longitud: 103-40E, altitud: 37 m

Observació

L'informe es va fer fa 32 minuts, a les 17:00 UTC
Vent 2 kt amb direcció variable
Temperatura 24°C
Humitat 89%
Pressió 1011 hPa
Visibilitat: 5000 m
Escasses núvols a una alçada de 2200 ft
Cel ennuvolat a una alçada de 28000 ft
calitja

METAR: WMKJ 211700Z VRB02KT 5000 HZ FEW022 BKN280 24/22 Q1011

Hora: 01:32 (17:32 UTC)

Pronòstic

L'informe es va fer fa 6 hores i 32 minuts, a les 11:00 UTC
Pronòstic vàlid del 21 a les 12 UTC al 22 a les 12 UTC
Vent 5 kt del Sud/Sud-Est
Visibilitat: 8000 m
Escasses núvols a una alçada de 2200 ft
Probabilitat 30% :
Temporalment
l' 21 a les 19 UTC al 22 a les 00 UTC
Visibilitat: 2000 m
Escasses núvols a una alçada de 700 ft
boirina

TAF: WMKJ 211100Z 2112/2212 15005KT 8000 FEW022 PROB30 TEMPO 2119/2200 2000 BR FEW007

Observacions i pronòstics meteorològics de més de 4000 aeroports (METAR i TAF).

Les estacions disponibles són els punts grocs i vermells al mapa.

Posi el ratolí al punt desitjat per veure el nom de l'estació.

Feu clic per veure les observacions i els pronòstics meteorològics.

Per canviar el mapa: feu clic els botons verds amb una creu de color negre per apropar; al botó verd amb un guió per allunyar la imatge; o en les fletxes verdes per a mapes adjacents.


METAR-TAF: